sensor_id;sensor_type;location;lat;lon;timestamp;temperature;humidity
1359;DHT22;673;48.098;14.422;2023-05-10T00:01:35;9.80;99.90
1359;DHT22;673;48.098;14.422;2023-05-10T00:04:02;9.70;99.90
1359;DHT22;673;48.098;14.422;2023-05-10T00:06:29;9.80;99.90
1359;DHT22;673;48.098;14.422;2023-05-10T00:08:57;9.70;99.90
1359;DHT22;673;48.098;14.422;2023-05-10T00:11:25;9.70;99.90
1359;DHT22;673;48.098;14.422;2023-05-10T00:13:52;9.70;99.90
1359;DHT22;673;48.098;14.422;2023-05-10T00:16:19;9.70;99.90
1359;DHT22;673;48.098;14.422;2023-05-10T00:18:46;9.70;99.90
1359;DHT22;673;48.098;14.422;2023-05-10T00:21:13;9.70;99.90
1359;DHT22;673;48.098;14.422;2023-05-10T00:23:40;9.70;99.90
1359;DHT22;673;48.098;14.422;2023-05-10T00:26:07;9.60;99.90
1359;DHT22;673;48.098;14.422;2023-05-10T00:28:36;9.60;99.90
1359;DHT22;673;48.098;14.422;2023-05-10T00:31:03;9.60;99.90
1359;DHT22;673;48.098;14.422;2023-05-10T00:33:30;9.60;99.90
1359;DHT22;673;48.098;14.422;2023-05-10T00:35:57;9.60;99.90
1359;DHT22;673;48.098;14.422;2023-05-10T00:38:24;9.60;99.90
1359;DHT22;673;48.098;14.422;2023-05-10T00:40:51;9.50;99.90
1359;DHT22;673;48.098;14.422;2023-05-10T00:43:18;9.50;99.90
1359;DHT22;673;48.098;14.422;2023-05-10T00:45:46;9.40;99.90
1359;DHT22;673;48.098;14.422;2023-05-10T00:48:13;9.40;99.90
1359;DHT22;673;48.098;14.422;2023-05-10T00:50:41;9.30;99.90
1359;DHT22;673;48.098;14.422;2023-05-10T00:53:08;9.30;99.90
1359;DHT22;673;48.098;14.422;2023-05-10T00:55:36;9.20;99.90
1359;DHT22;673;48.098;14.422;2023-05-10T00:58:03;9.30;99.90
1359;DHT22;673;48.098;14.422;2023-05-10T01:00:32;9.20;99.90
1359;DHT22;673;48.098;14.422;2023-05-10T01:03:01;9.10;99.90
1359;DHT22;673;48.098;14.422;2023-05-10T01:05:28;9.20;99.90
1359;DHT22;673;48.098;14.422;2023-05-10T01:07:56;9.00;99.90
1359;DHT22;673;48.098;14.422;2023-05-10T01:10:23;8.90;99.90
1359;DHT22;673;48.098;14.422;2023-05-10T01:12:50;8.80;99.90
1359;DHT22;673;48.098;14.422;2023-05-10T01:15:18;8.70;99.90
1359;DHT22;673;48.098;14.422;2023-05-10T01:17:47;8.70;99.90
1359;DHT22;673;48.098;14.422;2023-05-10T01:20:16;8.70;99.90
1359;DHT22;673;48.098;14.422;2023-05-10T01:22:57;8.80;99.90
1359;DHT22;673;48.098;14.422;2023-05-10T01:25:39;8.80;99.90
1359;DHT22;673;48.098;14.422;2023-05-10T01:28:23;8.80;99.90
1359;DHT22;673;48.098;14.422;2023-05-10T01:31:08;8.70;99.90
1359;DHT22;673;48.098;14.422;2023-05-10T01:33:47;8.70;99.90
1359;DHT22;673;48.098;14.422;2023-05-10T01:36:23;8.70;99.90
1359;DHT22;673;48.098;14.422;2023-05-10T01:38:57;8.70;99.90
1359;DHT22;673;48.098;14.422;2023-05-10T01:41:30;8.60;99.90
1359;DHT22;673;48.098;14.422;2023-05-10T01:44:11;8.70;99.90
1359;DHT22;673;48.098;14.422;2023-05-10T01:46:42;8.60;99.90
1359;DHT22;673;48.098;14.422;2023-05-10T01:49:14;8.60;99.90
1359;DHT22;673;48.098;14.422;2023-05-10T01:51:46;8.60;99.90
1359;DHT22;673;48.098;14.422;2023-05-10T01:54:14;8.60;99.90
1359;DHT22;673;48.098;14.422;2023-05-10T01:56:46;8.50;99.90
1359;DHT22;673;48.098;14.422;2023-05-10T01:59:18;8.30;99.90
1359;DHT22;673;48.098;14.422;2023-05-10T02:01:46;8.30;99.90
1359;DHT22;673;48.098;14.422;2023-05-10T02:04:16;8.20;99.90
1359;DHT22;673;48.098;14.422;2023-05-10T02:06:45;8.10;99.90
1359;DHT22;673;48.098;14.422;2023-05-10T02:09:14;8.10;99.90
1359;DHT22;673;48.098;14.422;2023-05-10T02:11:43;8.10;99.90
1359;DHT22;673;48.098;14.422;2023-05-10T02:14:11;8.20;99.90
1359;DHT22;673;48.098;14.422;2023-05-10T02:16:39;8.30;99.90
1359;DHT22;673;48.098;14.422;2023-05-10T02:19:07;8.30;99.90
1359;DHT22;673;48.098;14.422;2023-05-10T02:21:38;8.40;99.90
1359;DHT22;673;48.098;14.422;2023-05-10T02:24:06;8.50;99.90
1359;DHT22;673;48.098;14.422;2023-05-10T02:26:35;8.70;99.90
1359;DHT22;673;48.098;14.422;2023-05-10T02:29:03;8.80;99.90
1359;DHT22;673;48.098;14.422;2023-05-10T02:31:33;9.10;99.90
1359;DHT22;673;48.098;14.422;2023-05-10T02:34:00;9.10;99.90
1359;DHT22;673;48.098;14.422;2023-05-10T02:36:28;9.20;99.90
1359;DHT22;673;48.098;14.422;2023-05-10T02:38:59;9.20;99.90
1359;DHT22;673;48.098;14.422;2023-05-10T02:41:27;9.10;99.90
1359;DHT22;673;48.098;14.422;2023-05-10T02:43:59;9.00;99.90
1359;DHT22;673;48.098;14.422;2023-05-10T02:46:26;9.10;99.90
1359;DHT22;673;48.098;14.422;2023-05-10T02:48:53;9.10;99.90
1359;DHT22;673;48.098;14.422;2023-05-10T02:51:21;9.20;99.90
1359;DHT22;673;48.098;14.422;2023-05-10T02:53:52;9.20;99.90
1359;DHT22;673;48.098;14.422;2023-05-10T02:56:25;9.20;99.90
1359;DHT22;673;48.098;14.422;2023-05-10T02:58:55;9.20;99.90
1359;DHT22;673;48.098;14.422;2023-05-10T03:01:22;9.20;99.90
1359;DHT22;673;48.098;14.422;2023-05-10T03:03:49;9.10;99.90
1359;DHT22;673;48.098;14.422;2023-05-10T03:06:16;9.20;99.90
1359;DHT22;673;48.098;14.422;2023-05-10T03:08:44;9.30;99.90
1359;DHT22;673;48.098;14.422;2023-05-10T03:11:26;9.40;99.90
1359;DHT22;673;48.098;14.422;2023-05-10T03:14:06;9.50;99.90
1359;DHT22;673;48.098;14.422;2023-05-10T03:16:40;9.40;99.90
1359;DHT22;673;48.098;14.422;2023-05-10T03:19:14;9.40;99.90
1359;DHT22;673;48.098;14.422;2023-05-10T03:21:47;9.50;99.90
1359;DHT22;673;48.098;14.422;2023-05-10T03:24:16;9.50;99.90
1359;DHT22;673;48.098;14.422;2023-05-10T03:26:47;9.60;99.90
1359;DHT22;673;48.098;14.422;2023-05-10T03:29:16;9.60;99.90
1359;DHT22;673;48.098;14.422;2023-05-10T03:31:44;9.70;99.90
1359;DHT22;673;48.098;14.422;2023-05-10T03:34:11;9.80;99.90
1359;DHT22;673;48.098;14.422;2023-05-10T03:36:38;9.90;99.90
1359;DHT22;673;48.098;14.422;2023-05-10T03:39:04;9.90;99.90
1359;DHT22;673;48.098;14.422;2023-05-10T03:41:31;10.00;99.90
1359;DHT22;673;48.098;14.422;2023-05-10T03:44:00;10.10;99.90
1359;DHT22;673;48.098;14.422;2023-05-10T03:46:27;10.00;99.90
1359;DHT22;673;48.098;14.422;2023-05-10T03:48:54;10.00;99.90
1359;DHT22;673;48.098;14.422;2023-05-10T03:51:21;10.10;99.90
1359;DHT22;673;48.098;14.422;2023-05-10T03:53:48;10.10;99.90
1359;DHT22;673;48.098;14.422;2023-05-10T03:56:15;10.10;99.90
1359;DHT22;673;48.098;14.422;2023-05-10T03:58:41;10.10;99.90
1359;DHT22;673;48.098;14.422;2023-05-10T04:01:10;10.10;99.90
1359;DHT22;673;48.098;14.422;2023-05-10T04:03:37;10.20;99.90
1359;DHT22;673;48.098;14.422;2023-05-10T04:06:04;10.10;99.90
1359;DHT22;673;48.098;14.422;2023-05-10T04:08:32;10.20;99.90
1359;DHT22;673;48.098;14.422;2023-05-10T04:11:06;10.20;99.90
1359;DHT22;673;48.098;14.422;2023-05-10T04:13:34;10.30;99.90
1359;DHT22;673;48.098;14.422;2023-05-10T04:16:01;10.30;99.90
1359;DHT22;673;48.098;14.422;2023-05-10T04:18:29;10.30;99.90
1359;DHT22;673;48.098;14.422;2023-05-10T04:20:56;10.30;99.90
1359;DHT22;673;48.098;14.422;2023-05-10T04:23:23;10.40;99.90
1359;DHT22;673;48.098;14.422;2023-05-10T04:25:50;10.50;99.90
1359;DHT22;673;48.098;14.422;2023-05-10T04:28:17;10.60;99.90
1359;DHT22;673;48.098;14.422;2023-05-10T04:30:44;10.70;99.90
1359;DHT22;673;48.098;14.422;2023-05-10T04:33:11;10.90;99.90
1359;DHT22;673;48.098;14.422;2023-05-10T04:35:39;10.90;99.90
1359;DHT22;673;48.098;14.422;2023-05-10T04:38:06;11.00;99.90
1359;DHT22;673;48.098;14.422;2023-05-10T04:40:33;11.00;99.90
1359;DHT22;673;48.098;14.422;2023-05-10T04:43:01;11.20;99.90
1359;DHT22;673;48.098;14.422;2023-05-10T04:45:28;11.20;99.90
1359;DHT22;673;48.098;14.422;2023-05-10T04:47:55;11.30;99.90
1359;DHT22;673;48.098;14.422;2023-05-10T04:50:22;11.30;99.90
1359;DHT22;673;48.098;14.422;2023-05-10T04:52:50;11.40;99.90
1359;DHT22;673;48.098;14.422;2023-05-10T04:55:17;11.40;99.90
1359;DHT22;673;48.098;14.422;2023-05-10T04:57:44;11.30;99.90
1359;DHT22;673;48.098;14.422;2023-05-10T05:00:12;11.30;99.90
1359;DHT22;673;48.098;14.422;2023-05-10T05:02:42;11.20;99.90
1359;DHT22;673;48.098;14.422;2023-05-10T05:05:09;11.20;99.90
1359;DHT22;673;48.098;14.422;2023-05-10T05:07:36;11.30;99.90
1359;DHT22;673;48.098;14.422;2023-05-10T05:10:06;11.30;99.90
1359;DHT22;673;48.098;14.422;2023-05-10T05:12:33;11.40;99.90
1359;DHT22;673;48.098;14.422;2023-05-10T05:15:01;11.50;99.90
1359;DHT22;673;48.098;14.422;2023-05-10T05:17:30;11.50;99.90
1359;DHT22;673;48.098;14.422;2023-05-10T05:19:57;11.60;99.90
1359;DHT22;673;48.098;14.422;2023-05-10T05:22:24;11.60;99.90
1359;DHT22;673;48.098;14.422;2023-05-10T05:24:53;11.80;99.90
1359;DHT22;673;48.098;14.422;2023-05-10T05:27:21;11.80;99.90
1359;DHT22;673;48.098;14.422;2023-05-10T05:29:49;11.80;99.90
1359;DHT22;673;48.098;14.422;2023-05-10T05:32:16;11.80;99.90
1359;DHT22;673;48.098;14.422;2023-05-10T05:34:44;11.80;99.90
1359;DHT22;673;48.098;14.422;2023-05-10T05:37:13;11.70;99.90
1359;DHT22;673;48.098;14.422;2023-05-10T05:39:40;11.60;99.90
1359;DHT22;673;48.098;14.422;2023-05-10T05:42:08;11.70;99.90
1359;DHT22;673;48.098;14.422;2023-05-10T05:44:36;11.60;99.90
1359;DHT22;673;48.098;14.422;2023-05-10T05:47:03;11.60;99.90
1359;DHT22;673;48.098;14.422;2023-05-10T05:49:30;11.50;99.90
1359;DHT22;673;48.098;14.422;2023-05-10T05:51:59;11.60;99.90
1359;DHT22;673;48.098;14.422;2023-05-10T05:54:26;11.50;99.90
1359;DHT22;673;48.098;14.422;2023-05-10T05:56:54;11.50;99.90
1359;DHT22;673;48.098;14.422;2023-05-10T05:59:22;11.60;99.90
1359;DHT22;673;48.098;14.422;2023-05-10T06:01:50;11.60;99.90
1359;DHT22;673;48.098;14.422;2023-05-10T06:04:18;11.60;99.90
1359;DHT22;673;48.098;14.422;2023-05-10T06:06:45;11.60;99.90
1359;DHT22;673;48.098;14.422;2023-05-10T06:09:12;11.50;99.90
1359;DHT22;673;48.098;14.422;2023-05-10T06:11:39;11.50;99.90
1359;DHT22;673;48.098;14.422;2023-05-10T06:14:06;11.50;99.90
1359;DHT22;673;48.098;14.422;2023-05-10T06:16:33;11.60;99.90
1359;DHT22;673;48.098;14.422;2023-05-10T06:19:02;11.60;99.90
1359;DHT22;673;48.098;14.422;2023-05-10T06:21:29;11.70;99.90
1359;DHT22;673;48.098;14.422;2023-05-10T06:23:56;11.70;99.90
1359;DHT22;673;48.098;14.422;2023-05-10T06:26:23;11.80;99.90
1359;DHT22;673;48.098;14.422;2023-05-10T06:28:51;11.80;99.90
1359;DHT22;673;48.098;14.422;2023-05-10T06:31:17;11.90;99.90
1359;DHT22;673;48.098;14.422;2023-05-10T06:33:44;12.00;99.90
1359;DHT22;673;48.098;14.422;2023-05-10T06:36:13;12.00;99.90
1359;DHT22;673;48.098;14.422;2023-05-10T06:38:41;11.90;99.90
1359;DHT22;673;48.098;14.422;2023-05-10T06:41:08;11.60;99.90
1359;DHT22;673;48.098;14.422;2023-05-10T06:43:35;11.60;99.90
1359;DHT22;673;48.098;14.422;2023-05-10T06:46:05;11.50;99.90
1359;DHT22;673;48.098;14.422;2023-05-10T06:48:33;11.50;99.90
1359;DHT22;673;48.098;14.422;2023-05-10T06:50:59;11.40;99.90
1359;DHT22;673;48.098;14.422;2023-05-10T06:53:28;11.30;99.90
1359;DHT22;673;48.098;14.422;2023-05-10T06:55:55;11.20;99.90
1359;DHT22;673;48.098;14.422;2023-05-10T06:58:22;11.20;99.90
1359;DHT22;673;48.098;14.422;2023-05-10T07:00:49;10.90;99.90
1359;DHT22;673;48.098;14.422;2023-05-10T07:03:16;10.90;99.90
1359;DHT22;673;48.098;14.422;2023-05-10T07:05:43;10.90;99.90
1359;DHT22;673;48.098;14.422;2023-05-10T07:08:10;10.90;99.90
1359;DHT22;673;48.098;14.422;2023-05-10T07:10:38;10.80;99.90
1359;DHT22;673;48.098;14.422;2023-05-10T07:13:05;10.90;99.90
1359;DHT22;673;48.098;14.422;2023-05-10T07:15:32;11.00;99.90
1359;DHT22;673;48.098;14.422;2023-05-10T07:18:00;11.10;99.90
1359;DHT22;673;48.098;14.422;2023-05-10T07:20:28;11.10;99.90
1359;DHT22;673;48.098;14.422;2023-05-10T07:22:55;11.00;99.90
1359;DHT22;673;48.098;14.422;2023-05-10T07:25:21;11.40;99.90
1359;DHT22;673;48.098;14.422;2023-05-10T07:27:51;11.60;99.90
1359;DHT22;673;48.098;14.422;2023-05-10T07:30:18;11.70;99.90
1359;DHT22;673;48.098;14.422;2023-05-10T07:32:45;11.90;99.90
1359;DHT22;673;48.098;14.422;2023-05-10T07:35:12;11.80;99.90
1359;DHT22;673;48.098;14.422;2023-05-10T07:37:38;11.70;99.90
1359;DHT22;673;48.098;14.422;2023-05-10T07:40:07;11.70;99.90
1359;DHT22;673;48.098;14.422;2023-05-10T07:42:34;11.70;99.90
1359;DHT22;673;48.098;14.422;2023-05-10T07:45:03;11.90;99.90
1359;DHT22;673;48.098;14.422;2023-05-10T07:47:30;11.90;99.90
1359;DHT22;673;48.098;14.422;2023-05-10T07:49:57;11.90;99.90
1359;DHT22;673;48.098;14.422;2023-05-10T07:52:24;12.10;99.90
1359;DHT22;673;48.098;14.422;2023-05-10T07:54:51;12.40;99.90
1359;DHT22;673;48.098;14.422;2023-05-10T07:57:19;12.60;99.90
1359;DHT22;673;48.098;14.422;2023-05-10T07:59:47;12.60;99.90
1359;DHT22;673;48.098;14.422;2023-05-10T08:02:15;12.80;99.90
1359;DHT22;673;48.098;14.422;2023-05-10T08:04:42;12.80;99.90
1359;DHT22;673;48.098;14.422;2023-05-10T08:07:09;12.60;99.90
1359;DHT22;673;48.098;14.422;2023-05-10T08:09:36;12.60;99.90
1359;DHT22;673;48.098;14.422;2023-05-10T08:12:04;12.40;99.90
1359;DHT22;673;48.098;14.422;2023-05-10T08:14:31;12.20;99.90
1359;DHT22;673;48.098;14.422;2023-05-10T08:16:58;11.90;99.90
1359;DHT22;673;48.098;14.422;2023-05-10T08:19:26;11.80;99.90
1359;DHT22;673;48.098;14.422;2023-05-10T08:21:53;11.80;99.90
1359;DHT22;673;48.098;14.422;2023-05-10T08:24:21;11.80;99.90
1359;DHT22;673;48.098;14.422;2023-05-10T08:26:48;11.90;99.90
1359;DHT22;673;48.098;14.422;2023-05-10T08:29:15;11.90;99.90
1359;DHT22;673;48.098;14.422;2023-05-10T08:31:42;11.90;99.90
1359;DHT22;673;48.098;14.422;2023-05-10T08:34:09;11.90;99.90
1359;DHT22;673;48.098;14.422;2023-05-10T08:36:37;12.00;99.90
1359;DHT22;673;48.098;14.422;2023-05-10T08:39:04;12.20;99.90
1359;DHT22;673;48.098;14.422;2023-05-10T08:41:33;12.20;99.90
1359;DHT22;673;48.098;14.422;2023-05-10T08:44:04;12.30;99.90
1359;DHT22;673;48.098;14.422;2023-05-10T08:46:33;12.30;99.90
1359;DHT22;673;48.098;14.422;2023-05-10T08:49:02;12.40;99.90
1359;DHT22;673;48.098;14.422;2023-05-10T08:51:34;12.40;99.90
1359;DHT22;673;48.098;14.422;2023-05-10T08:54:04;12.60;99.90
1359;DHT22;673;48.098;14.422;2023-05-10T08:56:32;12.80;99.90
1359;DHT22;673;48.098;14.422;2023-05-10T08:58:59;12.90;99.90
1359;DHT22;673;48.098;14.422;2023-05-10T09:01:27;13.20;99.90
1359;DHT22;673;48.098;14.422;2023-05-10T09:03:54;13.40;99.90
1359;DHT22;673;48.098;14.422;2023-05-10T09:06:21;13.10;99.90
1359;DHT22;673;48.098;14.422;2023-05-10T09:08:49;13.10;99.90
1359;DHT22;673;48.098;14.422;2023-05-10T09:11:18;12.90;99.90
1359;DHT22;673;48.098;14.422;2023-05-10T09:13:47;13.10;99.90
1359;DHT22;673;48.098;14.422;2023-05-10T09:16:14;13.00;99.90
1359;DHT22;673;48.098;14.422;2023-05-10T09:18:41;13.00;99.90
1359;DHT22;673;48.098;14.422;2023-05-10T09:21:09;13.00;99.90
1359;DHT22;673;48.098;14.422;2023-05-10T09:23:36;13.10;99.90
1359;DHT22;673;48.098;14.422;2023-05-10T09:26:04;13.10;99.90
1359;DHT22;673;48.098;14.422;2023-05-10T09:28:33;13.00;99.90
1359;DHT22;673;48.098;14.422;2023-05-10T09:31:00;13.20;99.90
1359;DHT22;673;48.098;14.422;2023-05-10T09:33:27;13.00;99.90
1359;DHT22;673;48.098;14.422;2023-05-10T09:35:55;13.00;99.90
1359;DHT22;673;48.098;14.422;2023-05-10T09:38:22;13.40;99.90
1359;DHT22;673;48.098;14.422;2023-05-10T09:40:52;13.50;99.90
1359;DHT22;673;48.098;14.422;2023-05-10T09:43:21;13.30;99.90
1359;DHT22;673;48.098;14.422;2023-05-10T09:45:49;13.60;99.90
1359;DHT22;673;48.098;14.422;2023-05-10T09:48:16;13.90;99.90
1359;DHT22;673;48.098;14.422;2023-05-10T09:50:43;13.80;99.90
1359;DHT22;673;48.098;14.422;2023-05-10T09:53:14;13.50;99.90
1359;DHT22;673;48.098;14.422;2023-05-10T09:55:45;13.90;99.90
1359;DHT22;673;48.098;14.422;2023-05-10T09:58:13;14.10;99.90
1359;DHT22;673;48.098;14.422;2023-05-10T10:00:41;14.20;99.90
1359;DHT22;673;48.098;14.422;2023-05-10T10:03:14;14.30;99.90
1359;DHT22;673;48.098;14.422;2023-05-10T10:05:42;14.30;99.90
1359;DHT22;673;48.098;14.422;2023-05-10T10:08:10;14.30;99.90
1359;DHT22;673;48.098;14.422;2023-05-10T10:10:38;14.40;99.90
1359;DHT22;673;48.098;14.422;2023-05-10T10:13:06;14.10;99.90
1359;DHT22;673;48.098;14.422;2023-05-10T10:15:34;13.80;99.90
1359;DHT22;673;48.098;14.422;2023-05-10T10:18:01;13.80;99.90
1359;DHT22;673;48.098;14.422;2023-05-10T10:20:30;14.00;99.90
1359;DHT22;673;48.098;14.422;2023-05-10T10:22:57;14.20;99.90
1359;DHT22;673;48.098;14.422;2023-05-10T10:25:25;14.30;99.90
1359;DHT22;673;48.098;14.422;2023-05-10T10:28:04;14.30;99.90
1359;DHT22;673;48.098;14.422;2023-05-10T10:30:39;14.40;99.90
1359;DHT22;673;48.098;14.422;2023-05-10T10:33:33;14.40;99.90
1359;DHT22;673;48.098;14.422;2023-05-10T10:36:05;14.40;99.90
1359;DHT22;673;48.098;14.422;2023-05-10T10:38:54;14.20;99.90
1359;DHT22;673;48.098;14.422;2023-05-10T10:41:29;14.30;99.90
1359;DHT22;673;48.098;14.422;2023-05-10T10:44:25;14.30;99.90
1359;DHT22;673;48.098;14.422;2023-05-10T10:47:00;14.20;99.90
1359;DHT22;673;48.098;14.422;2023-05-10T10:49:30;14.40;99.90
1359;DHT22;673;48.098;14.422;2023-05-10T10:52:20;14.30;99.90
1359;DHT22;673;48.098;14.422;2023-05-10T10:54:50;14.50;99.90
1359;DHT22;673;48.098;14.422;2023-05-10T10:57:19;14.50;99.90
1359;DHT22;673;48.098;14.422;2023-05-10T10:59:47;14.60;99.90
1359;DHT22;673;48.098;14.422;2023-05-10T11:02:33;14.70;99.90
1359;DHT22;673;48.098;14.422;2023-05-10T11:08:18;14.80;99.90
1359;DHT22;673;48.098;14.422;2023-05-10T11:11:06;14.70;99.90
1359;DHT22;673;48.098;14.422;2023-05-10T11:13:36;15.00;99.90
1359;DHT22;673;48.098;14.422;2023-05-10T11:16:14;15.20;99.90
1359;DHT22;673;48.098;14.422;2023-05-10T11:18:52;15.20;99.90
1359;DHT22;673;48.098;14.422;2023-05-10T11:21:19;15.20;99.90
1359;DHT22;673;48.098;14.422;2023-05-10T11:23:52;15.20;99.90
1359;DHT22;673;48.098;14.422;2023-05-10T11:26:22;15.60;99.90
1359;DHT22;673;48.098;14.422;2023-05-10T11:28:52;15.40;99.90
1359;DHT22;673;48.098;14.422;2023-05-10T11:31:21;15.10;99.90
1359;DHT22;673;48.098;14.422;2023-05-10T11:33:49;15.40;99.90
1359;DHT22;673;48.098;14.422;2023-05-10T11:36:18;15.50;99.90
1359;DHT22;673;48.098;14.422;2023-05-10T11:38:45;15.70;99.90
1359;DHT22;673;48.098;14.422;2023-05-10T11:41:16;15.50;99.90
1359;DHT22;673;48.098;14.422;2023-05-10T11:43:46;15.00;99.90
1359;DHT22;673;48.098;14.422;2023-05-10T11:46:14;14.90;99.90
1359;DHT22;673;48.098;14.422;2023-05-10T11:48:43;14.50;99.90
1359;DHT22;673;48.098;14.422;2023-05-10T11:51:11;14.30;99.90
1359;DHT22;673;48.098;14.422;2023-05-10T11:53:38;14.20;99.90
1359;DHT22;673;48.098;14.422;2023-05-10T11:56:06;14.30;99.90
1359;DHT22;673;48.098;14.422;2023-05-10T11:58:35;14.10;99.90
1359;DHT22;673;48.098;14.422;2023-05-10T12:01:03;14.00;99.90
1359;DHT22;673;48.098;14.422;2023-05-10T12:03:31;13.80;99.90
1359;DHT22;673;48.098;14.422;2023-05-10T12:05:59;13.90;99.90
1359;DHT22;673;48.098;14.422;2023-05-10T12:08:28;13.80;99.90
1359;DHT22;673;48.098;14.422;2023-05-10T12:11:05;13.90;99.90
1359;DHT22;673;48.098;14.422;2023-05-10T12:13:36;14.10;99.90
1359;DHT22;673;48.098;14.422;2023-05-10T12:16:13;14.10;99.90
1359;DHT22;673;48.098;14.422;2023-05-10T12:18:40;14.20;99.90
1359;DHT22;673;48.098;14.422;2023-05-10T12:21:10;14.10;99.90
1359;DHT22;673;48.098;14.422;2023-05-10T12:23:37;14.40;99.90
1359;DHT22;673;48.098;14.422;2023-05-10T12:26:04;14.90;99.90
1359;DHT22;673;48.098;14.422;2023-05-10T12:28:33;15.00;99.90
1359;DHT22;673;48.098;14.422;2023-05-10T12:31:01;15.10;99.90
1359;DHT22;673;48.098;14.422;2023-05-10T12:33:35;15.00;99.90
1359;DHT22;673;48.098;14.422;2023-05-10T12:36:05;15.40;99.90
1359;DHT22;673;48.098;14.422;2023-05-10T12:38:33;15.80;99.90
1359;DHT22;673;48.098;14.422;2023-05-10T12:41:02;16.40;99.90
1359;DHT22;673;48.098;14.422;2023-05-10T12:43:29;16.70;99.90
1359;DHT22;673;48.098;14.422;2023-05-10T12:45:58;16.70;99.90
1359;DHT22;673;48.098;14.422;2023-05-10T12:48:25;16.90;99.90
1359;DHT22;673;48.098;14.422;2023-05-10T12:50:54;16.80;99.90
1359;DHT22;673;48.098;14.422;2023-05-10T12:53:21;16.70;99.90
1359;DHT22;673;48.098;14.422;2023-05-10T12:55:48;16.60;99.90
1359;DHT22;673;48.098;14.422;2023-05-10T12:58:15;16.90;99.90
1359;DHT22;673;48.098;14.422;2023-05-10T13:00:41;17.00;99.90
1359;DHT22;673;48.098;14.422;2023-05-10T13:03:10;16.80;99.90
1359;DHT22;673;48.098;14.422;2023-05-10T13:05:38;16.90;99.90
1359;DHT22;673;48.098;14.422;2023-05-10T13:08:05;17.00;99.90
1359;DHT22;673;48.098;14.422;2023-05-10T13:10:32;16.80;99.90
1359;DHT22;673;48.098;14.422;2023-05-10T13:12:59;17.00;99.90
1359;DHT22;673;48.098;14.422;2023-05-10T13:15:26;16.60;99.90
1359;DHT22;673;48.098;14.422;2023-05-10T13:17:54;16.80;99.90
1359;DHT22;673;48.098;14.422;2023-05-10T13:20:22;16.90;99.90
1359;DHT22;673;48.098;14.422;2023-05-10T13:22:49;16.90;99.90
1359;DHT22;673;48.098;14.422;2023-05-10T13:25:16;16.70;99.90
1359;DHT22;673;48.098;14.422;2023-05-10T13:27:43;16.70;99.90
1359;DHT22;673;48.098;14.422;2023-05-10T13:30:10;16.70;99.90
1359;DHT22;673;48.098;14.422;2023-05-10T13:32:37;16.20;99.90
1359;DHT22;673;48.098;14.422;2023-05-10T13:35:05;15.90;99.90
1359;DHT22;673;48.098;14.422;2023-05-10T13:37:34;16.10;99.90
1359;DHT22;673;48.098;14.422;2023-05-10T13:40:03;16.30;99.90
1359;DHT22;673;48.098;14.422;2023-05-10T13:42:30;16.40;99.90
1359;DHT22;673;48.098;14.422;2023-05-10T13:44:59;16.20;99.90
1359;DHT22;673;48.098;14.422;2023-05-10T13:47:25;16.40;99.90
1359;DHT22;673;48.098;14.422;2023-05-10T13:49:52;16.50;99.90
1359;DHT22;673;48.098;14.422;2023-05-10T13:52:20;16.60;99.90
1359;DHT22;673;48.098;14.422;2023-05-10T13:54:48;16.90;99.90
1359;DHT22;673;48.098;14.422;2023-05-10T13:57:17;17.00;99.90
1359;DHT22;673;48.098;14.422;2023-05-10T13:59:44;16.80;99.90
1359;DHT22;673;48.098;14.422;2023-05-10T14:02:11;17.00;99.90
1359;DHT22;673;48.098;14.422;2023-05-10T14:04:38;17.10;99.90
1359;DHT22;673;48.098;14.422;2023-05-10T14:07:05;16.70;99.90
1359;DHT22;673;48.098;14.422;2023-05-10T14:09:32;16.50;99.90
1359;DHT22;673;48.098;14.422;2023-05-10T14:12:01;16.50;99.90
1359;DHT22;673;48.098;14.422;2023-05-10T14:14:28;16.30;99.90
1359;DHT22;673;48.098;14.422;2023-05-10T14:16:55;16.40;99.90
1359;DHT22;673;48.098;14.422;2023-05-10T14:19:22;16.20;99.90
1359;DHT22;673;48.098;14.422;2023-05-10T14:21:49;16.30;99.90
1359;DHT22;673;48.098;14.422;2023-05-10T14:24:17;16.10;99.90
1359;DHT22;673;48.098;14.422;2023-05-10T14:26:44;16.10;99.90
1359;DHT22;673;48.098;14.422;2023-05-10T14:29:12;16.20;99.90
1359;DHT22;673;48.098;14.422;2023-05-10T14:31:40;16.30;99.90
1359;DHT22;673;48.098;14.422;2023-05-10T14:34:07;16.30;99.90
1359;DHT22;673;48.098;14.422;2023-05-10T14:36:34;16.40;99.90
1359;DHT22;673;48.098;14.422;2023-05-10T14:39:00;16.40;99.90
1359;DHT22;673;48.098;14.422;2023-05-10T14:41:28;16.60;99.90
1359;DHT22;673;48.098;14.422;2023-05-10T14:43:55;16.60;99.90
1359;DHT22;673;48.098;14.422;2023-05-10T14:46:24;16.70;99.90
1359;DHT22;673;48.098;14.422;2023-05-10T14:48:51;16.70;99.90
1359;DHT22;673;48.098;14.422;2023-05-10T14:51:18;16.70;99.90
1359;DHT22;673;48.098;14.422;2023-05-10T14:53:47;16.70;99.90
1359;DHT22;673;48.098;14.422;2023-05-10T14:56:14;16.70;99.90
1359;DHT22;673;48.098;14.422;2023-05-10T14:58:41;16.50;99.90
1359;DHT22;673;48.098;14.422;2023-05-10T15:01:08;16.50;99.90
1359;DHT22;673;48.098;14.422;2023-05-10T15:03:36;16.60;99.90
1359;DHT22;673;48.098;14.422;2023-05-10T15:06:04;16.70;99.90
1359;DHT22;673;48.098;14.422;2023-05-10T15:08:31;16.70;99.90
1359;DHT22;673;48.098;14.422;2023-05-10T15:10:58;16.60;99.90
1359;DHT22;673;48.098;14.422;2023-05-10T15:13:25;16.50;99.90
1359;DHT22;673;48.098;14.422;2023-05-10T15:15:52;16.50;99.90
1359;DHT22;673;48.098;14.422;2023-05-10T15:18:19;16.40;99.90
1359;DHT22;673;48.098;14.422;2023-05-10T15:20:47;16.50;99.90
1359;DHT22;673;48.098;14.422;2023-05-10T15:23:14;16.50;99.90
1359;DHT22;673;48.098;14.422;2023-05-10T15:25:41;16.50;99.90
1359;DHT22;673;48.098;14.422;2023-05-10T15:28:08;16.40;99.90
1359;DHT22;673;48.098;14.422;2023-05-10T15:30:35;16.30;99.90
1359;DHT22;673;48.098;14.422;2023-05-10T15:33:02;16.20;99.90
1359;DHT22;673;48.098;14.422;2023-05-10T15:35:29;16.30;99.90
1359;DHT22;673;48.098;14.422;2023-05-10T15:37:57;16.20;99.90
1359;DHT22;673;48.098;14.422;2023-05-10T15:40:24;16.00;99.90
1359;DHT22;673;48.098;14.422;2023-05-10T15:42:51;16.20;99.90
1359;DHT22;673;48.098;14.422;2023-05-10T15:45:18;16.00;99.90
1359;DHT22;673;48.098;14.422;2023-05-10T15:47:45;15.90;99.90
1359;DHT22;673;48.098;14.422;2023-05-10T15:50:12;16.00;99.90
1359;DHT22;673;48.098;14.422;2023-05-10T15:52:39;16.00;99.90
1359;DHT22;673;48.098;14.422;2023-05-10T15:55:08;16.00;99.90
1359;DHT22;673;48.098;14.422;2023-05-10T15:57:37;16.00;99.90
1359;DHT22;673;48.098;14.422;2023-05-10T16:00:06;16.00;99.90
1359;DHT22;673;48.098;14.422;2023-05-10T16:02:33;15.90;99.90
1359;DHT22;673;48.098;14.422;2023-05-10T16:05:00;15.80;99.90
1359;DHT22;673;48.098;14.422;2023-05-10T16:07:27;15.70;99.90
1359;DHT22;673;48.098;14.422;2023-05-10T16:09:54;15.60;99.90
1359;DHT22;673;48.098;14.422;2023-05-10T16:12:22;15.50;99.90
1359;DHT22;673;48.098;14.422;2023-05-10T16:14:49;15.30;99.90
1359;DHT22;673;48.098;14.422;2023-05-10T16:17:16;15.30;99.90